LELN/LEN METAR and TAF weather

Enter ICAO airport designator
Station Type Date Time Source
LELN METAR 2020/07/14 07:00 UTC NOAA

LELN 140700Z VRB02KT CAVOK 15/06 Q1022


Station Type Date Time Source
LELN Decoded METAR 2020/07/14 07:00 UTC NOAA

Leon / Virgen Del Camino, Spain (LELN) 42-35N 005-39W 914M
Jul 14, 2020 - 03:00 AM EDT / 2020.07.14 0700 UTC
Wind: Variable at 2 MPH (2 KT):0
Visibility: greater than 7 mile(s):0
Temperature: 59 F (15 C)
Dew Point: 42 F (6 C)
Relative Humidity: 54%
Pressure (altimeter): 30.18 in. Hg (1022 hPa)
ob: LELN 140700Z VRB02KT CAVOK 15/06 Q1022
cycle: 7

Station Type Date Time Source
LELN TAF 2018/03/28 12:27 UTC NOAA

TAF LELN 281100Z 2812/2824 27015KT CAVOK
TEMPO 2814/2821 27015G26KT
BECMG 2822/2824 31010KT PROB40
TEMPO 2815/2824 RA BKN030

Example: see airport list